Edgar County, IL

4:46 PM CST on November 24, 2014 (GMT -0600)
Terre Haute International-Hulman | Change Station
CLOSE
Current Station
Airport
Location: Terre Haute,
Elevation: 584 ft
Nearby Weather Stations

Elev 584 ft 39.45 °N, 87.31 °W | Updated 53 minutes ago

Overcast
Overcast
39 °F
Feels Like 30 °F
N
16
Wind Variable Wind from West
Gusts 29 mph

Today
High -- | Low -- °F
--% Chance of Precip.
Yesterday
High -- | Low -- °F
Precip. -- in
6:45 AM 4:29 PM
Waxing Crescent, 7% visible
Pressure 29.78 in
Visibility 10.0 miles
Clouds Overcast 3600 ft
Windchill 30 °F
Dew Point 29 °F
Humidity 67%
Rainfall 0.22 in
Snow Depth Not available.
UV 0 out of 12
Pollen .10 out of 12
Air Quality Not available.
Flu Activity Not available.
METAR KHUF 242153Z 26014G25KT 10SM OVC036 04/M02 A2977 RMK AO2 PK WND 24029/2141 RAB39E53 SLP082 P0000 T00391017

More Conditions Fewer Conditions

Pressure 29.78 in
Visibility 10.0 miles
Clouds Overcast 3600 ft
Windchill 30 °F
Dew Point 29 °F
Humidity 67%
Rainfall 0.22 in
Snow Depth Not available.
UV 0 out of 12
Pollen .10 out of 12
Air Quality Not available.
Flu Activity Not available.
METAR KHUF 242153Z 26014G25KT 10SM OVC036 04/M02 A2977 RMK AO2 PK WND 24029/2141 RAB39E53 SLP082 P0000 T00391017

More Conditions Fewer Conditions

10-Day Weather Forecast

Almanac

Astronomy

Nov. 24, 2014 Rise Set
Actual Time
Civil Twilight
Nautical Twilight
Astronomical Twilight
Moon
Length of Visible Light
Length of Day
Tomorrow will be .
, % of the Moon is Illuminated

Today's Extremes

State Highs State Lows

Community

WunderPhotos

Upload Photos

1,773,427 photos uploaded!

WunderBlogs® & News

Nearby

Air Quality

  Air Quality AQ Index Pollutant
Not available.

Snow Depth

Station Depth Elevation

Earthquake Activity

City Distance Mag. Time & Date
Minimum magnitude displayed is 2.5.

Coastal Water Temperatures

Place Temperature

Nearby Weather Stations